createdAt,value
2018-07-16T00:00:28.166Z,10.17
2018-07-16T00:02:55.780Z,10.33
2018-07-16T00:05:23.536Z,7.70
2018-07-16T00:07:51.141Z,8.13
2018-07-16T00:10:19.046Z,8.27
2018-07-16T00:12:46.673Z,6.93
2018-07-16T00:15:15.308Z,8.40
2018-07-16T00:17:42.921Z,8.00
2018-07-16T00:20:10.598Z,8.40
2018-07-16T00:22:38.208Z,7.77
2018-07-16T00:25:06.896Z,7.57
2018-07-16T00:27:35.549Z,8.53
2018-07-16T00:30:04.471Z,7.37
2018-07-16T00:32:32.085Z,7.03
2018-07-16T00:34:59.701Z,6.40
2018-07-16T00:37:27.309Z,11.50
2018-07-16T00:39:54.897Z,6.77
2018-07-16T00:42:22.589Z,6.63
2018-07-16T00:44:50.181Z,6.60
2018-07-16T00:47:17.761Z,6.33
2018-07-16T00:49:45.349Z,7.10
2018-07-16T00:52:14.043Z,8.97
2018-07-16T00:54:42.373Z,6.70
2018-07-16T00:57:09.871Z,6.33
2018-07-16T00:59:37.461Z,6.13
2018-07-16T01:02:05.280Z,7.37
2018-07-16T01:04:33.109Z,7.83
2018-07-16T01:07:00.711Z,6.60
2018-07-16T01:09:28.389Z,7.30
2018-07-16T01:11:56.005Z,7.37
2018-07-16T01:14:23.541Z,6.30
2018-07-16T01:16:51.225Z,7.00
2018-07-16T01:19:18.852Z,6.27
2018-07-16T01:21:46.472Z,6.40
2018-07-16T01:24:14.139Z,7.20
2018-07-16T01:26:41.758Z,6.27
2018-07-16T01:29:09.360Z,10.00
2018-07-16T01:31:38.026Z,6.77
2018-07-16T01:34:05.953Z,6.83
2018-07-16T01:36:33.552Z,8.20
2018-07-16T01:39:01.184Z,6.90
2018-07-16T01:41:28.817Z,6.43
2018-07-16T01:43:56.469Z,5.70
2018-07-16T01:46:24.121Z,6.17
2018-07-16T01:48:51.796Z,5.60
2018-07-16T01:51:19.447Z,6.20
2018-07-16T01:53:47.073Z,5.10
2018-07-16T01:56:14.730Z,5.20
2018-07-16T01:58:42.330Z,5.93
2018-07-16T02:01:10.033Z,6.07
2018-07-16T02:03:37.658Z,5.87
2018-07-16T02:06:05.830Z,6.00
2018-07-16T02:08:33.444Z,6.20
2018-07-16T02:11:01.081Z,5.50
2018-07-16T02:13:28.733Z,5.57
2018-07-16T02:15:57.056Z,6.93
2018-07-16T02:18:24.680Z,5.50
2018-07-16T02:20:52.372Z,5.60
2018-07-16T02:23:19.997Z,4.73
2018-07-16T02:25:55.023Z,5.20
2018-07-16T02:28:22.720Z,5.83
2018-07-16T02:30:50.955Z,5.33
2018-07-16T02:33:18.577Z,4.67
2018-07-16T02:35:47.206Z,5.33
2018-07-16T02:38:15.417Z,4.97
2018-07-16T02:40:44.753Z,4.73
2018-07-16T02:43:12.373Z,5.40
2018-07-16T02:45:40.009Z,8.00
2018-07-16T02:48:08.421Z,5.10
2018-07-16T02:50:37.049Z,4.80
2018-07-16T02:53:04.729Z,5.27
2018-07-16T02:55:32.357Z,6.80
2018-07-16T02:57:59.978Z,5.43
2018-07-16T03:00:28.278Z,4.90
2018-07-16T03:02:55.914Z,5.33
2018-07-16T03:05:23.541Z,4.33
2018-07-16T03:07:51.196Z,4.13
2018-07-16T03:10:18.865Z,4.43
2018-07-16T03:12:46.698Z,4.43
2018-07-16T03:15:14.664Z,4.17
2018-07-16T03:17:42.436Z,4.43
2018-07-16T03:20:10.098Z,4.10
2018-07-16T03:22:38.359Z,4.73
2018-07-16T03:25:05.988Z,7.90
2018-07-16T03:27:33.797Z,4.70
2018-07-16T03:30:02.184Z,4.30
2018-07-16T03:32:29.877Z,7.60
2018-07-16T03:34:57.522Z,4.13
2018-07-16T03:37:25.053Z,3.77
2018-07-16T03:39:52.693Z,5.90
2018-07-16T03:42:20.330Z,4.10
2018-07-16T03:44:47.845Z,6.00
2018-07-16T03:47:16.473Z,3.70
2018-07-16T03:49:44.107Z,3.93
2018-07-16T03:52:11.734Z,3.73
2018-07-16T03:54:39.344Z,4.23
2018-07-16T03:57:07.008Z,4.20
2018-07-16T03:59:34.633Z,3.80
2018-07-16T04:02:02.389Z,5.87
2018-07-16T04:04:30.038Z,4.70
2018-07-16T04:06:57.797Z,4.47
2018-07-16T04:09:25.454Z,4.43
2018-07-16T04:11:53.965Z,3.73
2018-07-16T04:14:21.605Z,3.80
2018-07-16T04:16:49.261Z,4.23
2018-07-16T04:19:16.901Z,4.10
2018-07-16T04:21:44.505Z,3.80
2018-07-16T04:24:13.856Z,4.40
2018-07-16T04:26:41.518Z,4.07
2018-07-16T04:29:09.149Z,4.23
2018-07-16T04:31:37.097Z,4.70
2018-07-16T04:34:04.889Z,4.77
2018-07-16T04:36:32.486Z,6.00
2018-07-16T04:39:00.194Z,6.60
2018-07-16T04:41:27.805Z,5.83
2018-07-16T04:43:55.416Z,5.23
2018-07-16T04:46:23.090Z,4.90
2018-07-16T04:48:52.825Z,3.80
2018-07-16T04:51:20.468Z,4.37
2018-07-16T04:53:48.114Z,5.17
2018-07-16T04:56:15.799Z,5.03
2018-07-16T04:58:43.370Z,5.40
2018-07-16T05:01:11.101Z,5.27
2018-07-16T05:03:38.742Z,10.60
2018-07-16T05:06:06.597Z,6.00
2018-07-16T05:08:34.268Z,5.57
2018-07-16T05:11:01.922Z,7.00
2018-07-16T05:13:29.821Z,6.17
2018-07-16T05:15:57.452Z,6.23
2018-07-16T05:18:25.200Z,7.00
2018-07-16T05:20:52.694Z,7.43
2018-07-16T05:23:20.332Z,8.27
2018-07-16T05:25:47.961Z,6.77
2018-07-16T05:28:16.324Z,10.70
2018-07-16T05:30:43.957Z,6.90
2018-07-16T05:33:12.357Z,8.60
2018-07-16T05:35:40.569Z,7.73
2018-07-16T05:38:08.218Z,8.53
2018-07-16T05:40:35.953Z,6.47
2018-07-16T05:43:03.613Z,8.23
2018-07-16T05:45:31.257Z,7.83
2018-07-16T05:47:58.860Z,7.17
2018-07-16T05:50:26.489Z,7.50
2018-07-16T05:52:54.094Z,7.97
2018-07-16T05:55:21.759Z,8.00
2018-07-16T05:57:49.383Z,9.10
2018-07-16T06:00:17.021Z,8.90
2018-07-16T06:02:44.681Z,7.57
2018-07-16T06:05:13.333Z,8.07
2018-07-16T06:07:40.932Z,7.90
2018-07-16T06:10:09.274Z,7.67
2018-07-16T06:12:36.885Z,7.63
2018-07-16T06:15:04.591Z,7.60
2018-07-16T06:17:32.225Z,7.27
2018-07-16T06:19:59.848Z,7.43
2018-07-16T06:22:27.456Z,7.23
2018-07-16T06:24:55.049Z,6.20
2018-07-16T06:27:22.679Z,7.00
2018-07-16T06:29:50.285Z,6.73
2018-07-16T06:32:18.708Z,5.97
2018-07-16T06:34:46.321Z,7.40
2018-07-16T06:37:13.978Z,7.10
2018-07-16T06:39:42.655Z,6.50
2018-07-16T06:42:10.242Z,5.57
2018-07-16T06:44:37.835Z,6.23
2018-07-16T06:47:06.011Z,7.00
2018-07-16T06:49:33.989Z,5.30
2018-07-16T06:52:01.661Z,5.13
2018-07-16T06:54:29.309Z,5.47
2018-07-16T06:56:57.960Z,4.93
2018-07-16T06:59:25.548Z,5.43
2018-07-16T07:01:53.222Z,5.97
2018-07-16T07:04:20.874Z,5.00
2018-07-16T07:06:48.507Z,5.47
2018-07-16T07:09:16.135Z,5.03
2018-07-16T07:11:43.756Z,4.90
2018-07-16T07:14:11.372Z,5.70
2018-07-16T07:16:39.014Z,5.17
2018-07-16T07:19:06.646Z,4.80
2018-07-16T07:21:34.370Z,6.03
2018-07-16T07:24:01.985Z,5.20
2018-07-16T07:26:29.621Z,5.43
2018-07-16T07:28:57.237Z,4.77
2018-07-16T07:31:24.859Z,6.63
2018-07-16T07:33:52.505Z,6.37
2018-07-16T07:36:20.137Z,5.63
2018-07-16T07:38:47.745Z,6.63
2018-07-16T07:41:15.361Z,6.47
2018-07-16T07:43:42.966Z,6.37
2018-07-16T07:46:10.556Z,4.90
2018-07-16T07:48:38.229Z,5.57
2018-07-16T07:51:05.948Z,8.07
2018-07-16T07:53:33.572Z,6.27
2018-07-16T07:56:01.214Z,4.80
2018-07-16T07:58:29.829Z,5.20
2018-07-16T08:00:57.429Z,6.17
2018-07-16T08:03:25.110Z,7.70
2018-07-16T08:05:58.621Z,5.33
2018-07-16T08:08:26.210Z,6.13
2018-07-16T08:10:55.597Z,4.00
2018-07-16T08:13:23.245Z,4.90
2018-07-16T08:15:51.711Z,4.57
2018-07-16T08:18:19.420Z,4.80
2018-07-16T08:20:47.500Z,5.47
2018-07-16T08:23:15.169Z,5.23
2018-07-16T08:25:42.845Z,6.00
2018-07-16T08:28:10.567Z,4.60
2018-07-16T08:30:38.157Z,5.13
2018-07-16T08:33:05.833Z,4.50
2018-07-16T08:35:33.382Z,4.70
2018-07-16T08:38:01.001Z,5.00
2018-07-16T08:40:28.693Z,3.90
2018-07-16T08:42:56.338Z,6.13
2018-07-16T08:45:23.976Z,5.13
2018-07-16T08:47:51.629Z,5.27
2018-07-16T08:50:19.261Z,5.27
2018-07-16T08:52:47.939Z,5.00
2018-07-16T08:55:15.628Z,4.47
2018-07-16T08:57:45.318Z,4.30
2018-07-16T09:00:12.920Z,5.30
2018-07-16T09:02:40.545Z,4.50
2018-07-16T09:05:08.226Z,5.20
2018-07-16T09:07:36.786Z,6.30
2018-07-16T09:10:04.733Z,5.10
2018-07-16T09:12:32.500Z,5.90
2018-07-16T09:15:01.141Z,5.67
2018-07-16T09:17:28.760Z,4.63
2018-07-16T09:19:56.389Z,5.20
2018-07-16T09:22:24.022Z,5.43
2018-07-16T09:24:51.629Z,5.50
2018-07-16T09:27:19.325Z,4.40
2018-07-16T09:29:46.933Z,4.60
2018-07-16T09:32:14.560Z,5.00
2018-07-16T09:34:42.153Z,5.57
2018-07-16T09:37:10.040Z,4.90
2018-07-16T09:39:37.677Z,4.40
2018-07-16T09:42:05.368Z,3.47
2018-07-16T09:44:33.078Z,4.57
2018-07-16T09:47:00.597Z,3.03
2018-07-16T09:49:29.306Z,4.63
2018-07-16T09:51:56.928Z,4.17
2018-07-16T09:54:24.536Z,4.40
2018-07-16T09:56:52.161Z,3.93
2018-07-16T09:59:19.805Z,5.33
2018-07-16T10:01:53.036Z,4.10
2018-07-16T10:04:20.630Z,3.70
2018-07-16T10:06:48.246Z,5.23
2018-07-16T10:09:15.880Z,4.30
2018-07-16T10:11:43.481Z,3.90
2018-07-16T10:14:11.077Z,4.27
2018-07-16T10:16:38.700Z,5.77
2018-07-16T10:19:06.329Z,3.50
2018-07-16T10:21:33.946Z,4.97
2018-07-16T10:24:01.549Z,3.50
2018-07-16T10:26:29.218Z,4.37
2018-07-16T10:28:56.820Z,4.63
2018-07-16T10:31:24.429Z,4.13
2018-07-16T10:33:52.134Z,4.10
2018-07-16T10:36:20.041Z,4.00
2018-07-16T10:38:47.642Z,5.60
2018-07-16T10:41:15.249Z,3.30
2018-07-16T10:43:42.877Z,3.90
2018-07-16T10:46:10.532Z,3.40
2018-07-16T10:48:38.173Z,3.67
2018-07-16T10:51:05.876Z,3.93
2018-07-16T10:53:33.493Z,2.40
2018-07-16T10:56:01.122Z,5.80
2018-07-16T10:58:28.746Z,2.90
2018-07-16T11:00:56.369Z,3.03
2018-07-16T11:03:23.994Z,2.80
2018-07-16T11:05:52.175Z,2.90
2018-07-16T11:08:19.805Z,2.63
2018-07-16T11:10:47.420Z,2.60
2018-07-16T11:13:15.082Z,2.70
2018-07-16T11:15:42.728Z,2.53
2018-07-16T11:18:10.322Z,2.70
2018-07-16T11:20:37.967Z,2.80
2018-07-16T11:23:05.630Z,2.53
2018-07-16T11:25:33.258Z,2.60
2018-07-16T11:28:00.850Z,2.87
2018-07-16T11:30:28.448Z,2.80
2018-07-16T11:32:56.057Z,2.60
2018-07-16T11:35:23.710Z,2.70
2018-07-16T11:37:51.301Z,2.40
2018-07-16T11:40:18.940Z,2.13
2018-07-16T11:42:46.583Z,2.40
2018-07-16T11:45:14.214Z,2.30
2018-07-16T11:47:41.829Z,2.53
2018-07-16T11:50:09.849Z,2.37
2018-07-16T11:52:38.176Z,2.13
2018-07-16T11:55:05.773Z,3.17
2018-07-16T11:57:33.370Z,2.90
2018-07-16T12:00:01.832Z,2.13
2018-07-16T12:02:29.472Z,2.70
2018-07-16T12:04:57.119Z,2.40
2018-07-16T12:07:24.801Z,2.30
2018-07-16T12:09:53.022Z,2.70
2018-07-16T12:12:20.645Z,2.67
2018-07-16T12:14:48.232Z,2.70
2018-07-16T12:17:15.844Z,2.83
2018-07-16T12:19:43.440Z,2.40
2018-07-16T12:22:11.029Z,3.90
2018-07-16T12:24:38.537Z,3.00
2018-07-16T12:27:06.252Z,2.67
2018-07-16T12:29:34.092Z,3.80
2018-07-16T12:32:01.727Z,2.43
2018-07-16T12:34:29.353Z,3.03
2018-07-16T12:36:58.285Z,2.50
2018-07-16T12:39:25.892Z,2.57
2018-07-16T12:41:54.189Z,3.10
2018-07-16T12:44:21.772Z,3.60
2018-07-16T12:46:49.422Z,5.47
2018-07-16T12:49:17.055Z,2.57
2018-07-16T12:51:44.657Z,1.70
2018-07-16T12:54:12.257Z,2.80
2018-07-16T12:56:39.893Z,2.13
2018-07-16T12:59:07.530Z,2.20
2018-07-16T13:01:35.129Z,1.97
2018-07-16T13:04:02.725Z,2.30
2018-07-16T13:06:30.328Z,2.47
2018-07-16T13:08:59.981Z,2.13
2018-07-16T13:11:27.620Z,2.10
2018-07-16T13:13:55.231Z,1.87
2018-07-16T13:16:22.838Z,3.73
2018-07-16T13:18:51.430Z,2.27
2018-07-16T13:21:18.957Z,2.20
2018-07-16T13:23:46.579Z,2.00
2018-07-16T13:26:14.238Z,1.87
2018-07-16T13:28:41.841Z,2.53
2018-07-16T13:31:09.469Z,2.00
2018-07-16T13:33:37.077Z,2.57
2018-07-16T13:36:04.758Z,2.10
2018-07-16T13:38:32.375Z,2.17
2018-07-16T13:41:05.741Z,2.23
2018-07-16T13:43:33.353Z,2.40
2018-07-16T13:46:00.956Z,2.33
2018-07-16T13:48:28.558Z,2.13
2018-07-16T13:50:56.161Z,2.50
2018-07-16T13:53:24.829Z,2.67
2018-07-16T13:55:52.857Z,2.20
2018-07-16T13:58:20.492Z,2.23
2018-07-16T14:00:48.397Z,2.83
2018-07-16T14:03:16.021Z,2.70
2018-07-16T14:05:43.673Z,2.50
2018-07-16T14:08:11.185Z,2.60
2018-07-16T14:10:38.837Z,2.20
2018-07-16T14:13:06.623Z,2.27
2018-07-16T14:15:34.236Z,2.57
2018-07-16T14:18:01.834Z,3.00
2018-07-16T14:20:30.445Z,3.30
2018-07-16T14:22:58.029Z,3.13
2018-07-16T14:25:25.618Z,2.80
2018-07-16T14:27:53.244Z,2.80
2018-07-16T14:30:20.853Z,2.70
2018-07-16T14:32:48.452Z,2.80
2018-07-16T14:35:16.077Z,2.77
2018-07-16T14:37:44.706Z,2.70
2018-07-16T14:40:13.333Z,2.63
2018-07-16T14:42:40.953Z,2.73
2018-07-16T14:45:08.601Z,4.00
2018-07-16T14:47:36.239Z,3.43
2018-07-16T14:50:03.877Z,2.98
2018-07-16T14:52:31.526Z,3.22
2018-07-16T14:54:59.132Z,4.87
2018-07-16T14:57:26.745Z,6.60
2018-07-16T14:59:54.405Z,6.70
2018-07-16T15:02:22.051Z,8.67
2018-07-16T15:04:49.641Z,5.43
2018-07-16T15:07:17.305Z,5.70
2018-07-16T15:09:44.910Z,3.80
2018-07-16T15:12:13.017Z,4.10
2018-07-16T15:14:40.632Z,4.93
2018-07-16T15:17:08.266Z,3.40
2018-07-16T15:19:35.893Z,3.47
2018-07-16T15:22:03.573Z,3.37
2018-07-16T15:24:31.177Z,2.70
2018-07-16T15:26:58.773Z,3.30
2018-07-16T15:29:26.398Z,3.93
2018-07-16T15:31:54.037Z,3.00
2018-07-16T15:34:22.730Z,2.70
2018-07-16T15:36:50.371Z,3.20
2018-07-16T15:39:18.005Z,2.73
2018-07-16T15:41:45.661Z,3.07
2018-07-16T15:44:13.300Z,2.50
2018-07-16T15:46:40.904Z,2.10
2018-07-16T15:49:08.509Z,1.80
2018-07-16T15:51:37.108Z,2.37
2018-07-16T15:54:04.751Z,2.40
2018-07-16T15:56:32.357Z,2.13
2018-07-16T15:58:59.971Z,1.80
2018-07-16T16:01:27.587Z,3.80
2018-07-16T16:03:55.792Z,2.37
2018-07-16T16:06:23.531Z,2.10
2018-07-16T16:08:51.176Z,2.10
2018-07-16T16:11:18.777Z,2.20
2018-07-16T16:13:46.910Z,1.80
2018-07-16T16:16:14.541Z,2.27
2018-07-16T16:18:42.138Z,1.80
2018-07-16T16:21:09.826Z,1.80
2018-07-16T16:23:37.466Z,1.90
2018-07-16T16:26:05.261Z,2.20
2018-07-16T16:28:32.868Z,2.40
2018-07-16T16:31:01.330Z,1.63
2018-07-16T16:33:29.000Z,2.13
2018-07-16T16:35:56.641Z,1.33
2018-07-16T16:38:24.349Z,2.37
2018-07-16T16:40:51.872Z,2.07
2018-07-16T16:43:19.601Z,1.80
2018-07-16T16:45:47.421Z,1.83
2018-07-16T16:48:15.093Z,1.73
2018-07-16T16:50:42.693Z,2.90
2018-07-16T16:53:11.098Z,2.20
2018-07-16T16:55:38.739Z,1.90
2018-07-16T16:58:06.728Z,1.90
2018-07-16T17:00:34.345Z,1.90
2018-07-16T17:03:01.869Z,2.10
2018-07-16T17:05:30.189Z,2.33
2018-07-16T17:07:57.785Z,4.30
2018-07-16T17:10:25.453Z,2.43
2018-07-16T17:12:53.257Z,2.60
2018-07-16T17:15:20.907Z,1.80
2018-07-16T17:17:48.529Z,2.77
2018-07-16T17:20:16.769Z,2.40
2018-07-16T17:22:44.402Z,2.00
2018-07-16T17:25:12.036Z,2.50
2018-07-16T17:27:39.648Z,4.60
2018-07-16T17:30:07.254Z,2.70
2018-07-16T17:32:35.008Z,2.47
2018-07-16T17:35:02.668Z,2.80
2018-07-16T17:37:30.304Z,2.60
2018-07-16T17:39:57.908Z,2.70
2018-07-16T17:42:25.684Z,2.60
2018-07-16T17:44:53.360Z,3.10
2018-07-16T17:47:21.031Z,2.90
2018-07-16T17:49:49.439Z,5.30
2018-07-16T17:52:17.033Z,3.10
2018-07-16T17:54:44.649Z,3.13
2018-07-16T17:57:12.274Z,3.40
2018-07-16T17:59:39.869Z,4.30
2018-07-16T18:02:08.507Z,3.17
2018-07-16T18:04:36.136Z,6.10
2018-07-16T18:07:03.817Z,3.57
2018-07-16T18:09:31.429Z,4.57
2018-07-16T18:12:00.046Z,3.47
2018-07-16T18:14:27.726Z,5.47
2018-07-16T18:16:55.365Z,3.50
2018-07-16T18:19:24.793Z,3.97
2018-07-16T18:21:52.447Z,4.00
2018-07-16T18:24:20.068Z,4.10
2018-07-16T18:26:47.691Z,4.90
2018-07-16T18:29:15.330Z,3.67
2018-07-16T18:31:42.941Z,3.00
2018-07-16T18:34:10.617Z,3.23
2018-07-16T18:36:38.254Z,4.03
2018-07-16T18:39:07.272Z,4.37
2018-07-16T18:41:34.914Z,3.10
2018-07-16T18:44:02.557Z,3.47
2018-07-16T18:46:30.725Z,4.63
2018-07-16T18:48:58.333Z,4.90
2018-07-16T18:51:26.652Z,4.27
2018-07-16T18:53:54.312Z,3.87
2018-07-16T18:56:21.956Z,4.50
2018-07-16T18:58:49.641Z,4.63
2018-07-16T19:01:17.261Z,4.10
2018-07-16T19:03:46.937Z,4.20
2018-07-16T19:06:14.634Z,5.50
2018-07-16T19:08:42.401Z,4.80
2018-07-16T19:11:11.018Z,5.27
2018-07-16T19:13:39.157Z,4.50
2018-07-16T19:16:06.860Z,5.40
2018-07-16T19:18:34.485Z,6.67
2018-07-16T19:21:02.137Z,5.97
2018-07-16T19:23:29.785Z,5.30
2018-07-16T19:25:57.441Z,5.50
2018-07-16T19:28:24.977Z,5.10
2018-07-16T19:30:52.623Z,5.47
2018-07-16T19:33:20.757Z,5.23
2018-07-16T19:35:48.405Z,5.30
2018-07-16T19:38:16.075Z,4.50
2018-07-16T19:40:43.713Z,5.23
2018-07-16T19:43:11.499Z,4.30
2018-07-16T19:45:39.149Z,6.57
2018-07-16T19:48:06.847Z,4.30
2018-07-16T19:50:34.487Z,6.13
2018-07-16T19:53:02.130Z,7.10
2018-07-16T19:55:29.773Z,6.10
2018-07-16T19:57:57.488Z,7.20
2018-07-16T20:00:24.985Z,5.47
2018-07-16T20:02:53.312Z,11.60
2018-07-16T20:05:20.950Z,4.80
2018-07-16T20:07:48.613Z,13.10
2018-07-16T20:10:16.396Z,6.17
2018-07-16T20:12:44.014Z,5.37
2018-07-16T20:15:16.830Z,4.53
2018-07-16T20:17:44.566Z,5.90
2018-07-16T20:20:12.242Z,3.90
2018-07-16T20:22:39.909Z,4.23
2018-07-16T20:25:09.277Z,4.70
2018-07-16T20:27:36.902Z,4.53
2018-07-16T20:30:06.534Z,5.10
2018-07-16T20:32:34.311Z,9.60
2018-07-16T20:35:03.062Z,5.33
2018-07-16T20:37:30.721Z,5.77
2018-07-16T20:39:58.400Z,6.03
2018-07-16T20:42:26.041Z,5.43
2018-07-16T20:44:53.581Z,6.03
2018-07-16T20:47:21.200Z,6.40
2018-07-16T20:49:48.810Z,6.27
2018-07-16T20:52:16.416Z,6.80
2018-07-16T20:54:44.029Z,6.17
2018-07-16T20:57:13.305Z,5.97
2018-07-16T20:59:40.924Z,6.20
2018-07-16T21:02:08.553Z,5.83
2018-07-16T21:04:36.184Z,4.97
2018-07-16T21:07:04.005Z,5.70
2018-07-16T21:09:31.634Z,5.10
2018-07-16T21:11:59.294Z,8.30
2018-07-16T21:14:26.973Z,4.67
2018-07-16T21:16:54.587Z,7.73
2018-07-16T21:19:22.241Z,5.90
2018-07-16T21:21:49.874Z,6.10
2018-07-16T21:24:17.488Z,9.43
2018-07-16T21:26:45.124Z,5.53
2018-07-16T21:29:12.784Z,4.97
2018-07-16T21:31:40.433Z,5.13
2018-07-16T21:34:08.045Z,5.50
2018-07-16T21:36:35.657Z,10.47
2018-07-16T21:39:04.657Z,5.93
2018-07-16T21:41:32.269Z,5.57
2018-07-16T21:43:59.968Z,7.47
2018-07-16T21:46:27.605Z,5.17
2018-07-16T21:48:55.137Z,5.43
2018-07-16T21:51:22.773Z,7.33
2018-07-16T21:53:50.389Z,7.80
2018-07-16T21:56:17.932Z,6.10
2018-07-16T21:58:45.548Z,5.77
2018-07-16T22:01:15.081Z,5.10
2018-07-16T22:03:42.744Z,5.53
2018-07-16T22:06:10.327Z,5.50
2018-07-16T22:08:38.033Z,7.17
2018-07-16T22:11:05.710Z,6.63
2018-07-16T22:13:33.323Z,8.73
2018-07-16T22:16:00.897Z,5.90
2018-07-16T22:18:28.487Z,6.63
2018-07-16T22:20:56.100Z,7.70
2018-07-16T22:23:23.705Z,7.57
2018-07-16T22:25:51.317Z,7.73
2018-07-16T22:28:18.936Z,7.93
2018-07-16T22:30:47.340Z,9.40
2018-07-16T22:33:15.617Z,8.57
2018-07-16T22:35:43.244Z,7.47
2018-07-16T22:38:10.886Z,7.70
2018-07-16T22:40:38.485Z,7.80
2018-07-16T22:43:06.118Z,6.30
2018-07-16T22:45:33.725Z,6.57
2018-07-16T22:48:01.311Z,6.80
2018-07-16T22:50:29.644Z,7.73
2018-07-16T22:52:57.250Z,8.30
2018-07-16T22:55:24.849Z,8.63
2018-07-16T22:57:53.661Z,8.03
2018-07-16T23:00:21.247Z,12.53
2018-07-16T23:02:48.841Z,8.10
2018-07-16T23:05:16.477Z,9.27
2018-07-16T23:07:44.133Z,8.50
2018-07-16T23:10:11.773Z,7.93
2018-07-16T23:12:39.392Z,8.73
2018-07-16T23:15:06.993Z,8.07
2018-07-16T23:17:34.582Z,8.73
2018-07-16T23:20:02.213Z,7.90
2018-07-16T23:22:30.883Z,9.47
2018-07-16T23:24:58.473Z,11.67
2018-07-16T23:27:26.076Z,9.80
2018-07-16T23:29:53.584Z,12.70
2018-07-16T23:32:21.184Z,8.13
2018-07-16T23:34:48.785Z,11.90
2018-07-16T23:37:16.366Z,9.87
2018-07-16T23:39:43.962Z,11.70
2018-07-16T23:42:11.577Z,8.40
2018-07-16T23:44:39.230Z,8.80
2018-07-16T23:47:06.865Z,8.27
2018-07-16T23:49:34.473Z,7.20
2018-07-16T23:52:02.089Z,8.37
2018-07-16T23:54:29.685Z,9.17
2018-07-16T23:56:57.315Z,9.67
2018-07-16T23:59:24.944Z,9.20
